Reeds Station, Illinois
Current Conditions -  °F | °C
As of 11:52 PM on Saturday 20 Dec 2014 (Local Time) from KMDH Reporting Station
Clear Clear  
Wind Chill: 32°   Ceiling: Unl
Heat Index: 32°   Visibility: 10mi
Dew Point: 27°   Wind: 0mph
Humidity: 82%   Direction: NA
Pressure: 30.28"   Gusts: NA
Location:  37.8209°N, 89.2055°W
Report Text: KMDH 210552Z AUTO 00000KT 10SM CLR 00/M03 A3028 RMK AO2 SLP256 T00001028 10033 21006 400671006 58003
Loading
Personal Weather Stations






























Interactive Weather Map New forecast layout! Learn more

10-Day Weather Forecast

Advertisements
Track Severe Weather on mobile